AUA525 LOWW-LIML
Flight info
| Callsign | AUA525 |
|---|---|
| Flight time | 1h 3m |
| Altitude | 34000 |
| Route | OSPEN DCT ABRUK DCT SETAL DCT DETSA/N0442F330 DCT NAXAV DCT RENTA DCT ATPED DCT LUSIL |
| Aircraft | A320/M-SDE3FGHIRWY/LB1 |
Departure
| Time | 2026-04-26 19:04 |
|---|---|
| Airport | Vienna International Airport (LOWW) |
Arrival
| Time | 2026-04-26 20:07 |
|---|---|
| Airport | Milano Linate Airport (LIML) |
| Time | Latitude | Longitude | Altitude | Speed | Heading |
|---|---|---|---|---|---|
| 2026-04-26 18:34 | 48.11913 | 16.56712 | 619 ft | 0 kts | 206° |
| 2026-04-26 18:55 | 48.11928 | 16.56723 | 623 ft | 4 kts | 206° |
| 2026-04-26 18:56 | 48.11947 | 16.56737 | 625 ft | 4 kts | 204° |
| 2026-04-26 18:56 | 48.11971 | 16.56749 | 625 ft | 4 kts | 176° |
| 2026-04-26 18:56 | 48.11987 | 16.56736 | 623 ft | 4 kts | 116° |
| 2026-04-26 18:56 | 48.11993 | 16.56719 | 620 ft | 0 kts | 116° |
| 2026-04-26 18:59 | 48.11991 | 16.56725 | 621 ft | 4 kts | 116° |
| 2026-04-26 18:59 | 48.11966 | 16.56802 | 620 ft | 9 kts | 116° |
| 2026-04-26 18:59 | 48.11928 | 16.56919 | 622 ft | 16 kts | 115° |
| 2026-04-26 18:59 | 48.11877 | 16.57073 | 612 ft | 17 kts | 116° |
| 2026-04-26 19:00 | 48.11845 | 16.57240 | 621 ft | 16 kts | 112° |
| 2026-04-26 19:00 | 48.11782 | 16.57358 | 619 ft | 15 kts | 163° |
| 2026-04-26 19:00 | 48.11685 | 16.57397 | 613 ft | 17 kts | 164° |
| 2026-04-26 19:00 | 48.11550 | 16.57455 | 618 ft | 21 kts | 165° |
| 2026-04-26 19:01 | 48.11429 | 16.57415 | 620 ft | 17 kts | 206° |
| 2026-04-26 19:01 | 48.11325 | 16.57340 | 621 ft | 16 kts | 205° |
| 2026-04-26 19:01 | 48.11238 | 16.57283 | 616 ft | 11 kts | 189° |
| 2026-04-26 19:01 | 48.11184 | 16.57351 | 618 ft | 13 kts | 117° |
| 2026-04-26 19:02 | 48.11129 | 16.57514 | 619 ft | 19 kts | 114° |
| 2026-04-26 19:02 | 48.11051 | 16.57646 | 611 ft | 18 kts | 181° |
| 2026-04-26 19:02 | 48.10935 | 16.57568 | 611 ft | 14 kts | 214° |
| 2026-04-26 19:02 | 48.10926 | 16.57499 | 619 ft | 9 kts | 281° |
| 2026-04-26 19:03 | 48.10995 | 16.57284 | 615 ft | 49 kts | 296° |
| 2026-04-26 19:03 | 48.11252 | 16.56499 | 615 ft | 116 kts | 296° |
| 2026-04-26 19:03 | 48.11689 | 16.55158 | 628 ft | 167 kts | 296° |
| 2026-04-26 19:03 | 48.12161 | 16.53522 | 1112 ft | 176 kts | 281° |
| 2026-04-26 19:04 | 48.11926 | 16.51755 | 1837 ft | 180 kts | 241° |
| 2026-04-26 19:04 | 48.11023 | 16.50285 | 2199 ft | 204 kts | 218° |
| 2026-04-26 19:04 | 48.09815 | 16.49013 | 2682 ft | 218 kts | 211° |
| 2026-04-26 19:04 | 48.08509 | 16.47768 | 3290 ft | 225 kts | 214° |
| 2026-04-26 19:05 | 48.05915 | 16.44858 | 4291 ft | 255 kts | 222° |
| 2026-04-26 19:05 | 48.04515 | 16.43075 | 4860 ft | 271 kts | 223° |
| 2026-04-26 19:05 | 48.03081 | 16.41210 | 5730 ft | 274 kts | 225° |
| 2026-04-26 19:06 | 48.01646 | 16.39331 | 6759 ft | 272 kts | 226° |
| 2026-04-26 19:06 | 48.00226 | 16.37470 | 7719 ft | 272 kts | 227° |
| 2026-04-26 19:06 | 47.98986 | 16.35367 | 8548 ft | 269 kts | 245° |
| 2026-04-26 19:06 | 47.98354 | 16.32770 | 9360 ft | 267 kts | 259° |
| 2026-04-26 19:07 | 47.97850 | 16.30085 | 10226 ft | 272 kts | 253° |
| 2026-04-26 19:07 | 47.97132 | 16.27351 | 10572 ft | 294 kts | 252° |
| 2026-04-26 19:07 | 47.96349 | 16.24401 | 10842 ft | 316 kts | 252° |
| 2026-04-26 19:07 | 47.95516 | 16.21302 | 11405 ft | 325 kts | 251° |
| 2026-04-26 19:08 | 47.94661 | 16.18146 | 12107 ft | 330 kts | 251° |
| 2026-04-26 19:08 | 47.93791 | 16.14950 | 12817 ft | 335 kts | 251° |
| 2026-04-26 19:08 | 47.92903 | 16.11704 | 13523 ft | 340 kts | 251° |
| 2026-04-26 19:08 | 47.92005 | 16.08416 | 14196 ft | 345 kts | 251° |
| 2026-04-26 19:09 | 47.91096 | 16.05082 | 14815 ft | 349 kts | 251° |
| 2026-04-26 19:09 | 47.90177 | 16.01709 | 15471 ft | 353 kts | 251° |
| 2026-04-26 19:09 | 47.89251 | 15.98307 | 16121 ft | 356 kts | 251° |
| 2026-04-26 19:09 | 47.88327 | 15.94910 | 16753 ft | 360 kts | 251° |
| 2026-04-26 19:10 | 47.87382 | 15.91438 | 17386 ft | 363 kts | 251° |
| 2026-04-26 19:10 | 47.86425 | 15.87931 | 18025 ft | 367 kts | 251° |
| 2026-04-26 19:10 | 47.85457 | 15.84399 | 18633 ft | 370 kts | 251° |
| 2026-04-26 19:10 | 47.84476 | 15.80834 | 19178 ft | 373 kts | 250° |
| 2026-04-26 19:11 | 47.83486 | 15.77249 | 19760 ft | 375 kts | 250° |
| 2026-04-26 19:11 | 47.82491 | 15.73654 | 20335 ft | 377 kts | 250° |
| 2026-04-26 19:11 | 47.81488 | 15.70038 | 20918 ft | 379 kts | 250° |
| 2026-04-26 19:11 | 47.80479 | 15.66399 | 21502 ft | 382 kts | 250° |
| 2026-04-26 19:12 | 47.79467 | 15.62735 | 22058 ft | 384 kts | 250° |
| 2026-04-26 19:12 | 47.78453 | 15.59060 | 22605 ft | 386 kts | 250° |
| 2026-04-26 19:12 | 47.77428 | 15.55355 | 23119 ft | 388 kts | 250° |
| 2026-04-26 19:12 | 47.76392 | 15.51629 | 23646 ft | 391 kts | 249° |
| 2026-04-26 19:13 | 47.75347 | 15.47888 | 24089 ft | 393 kts | 249° |
| 2026-04-26 19:13 | 47.74295 | 15.44135 | 24505 ft | 395 kts | 249° |
| 2026-04-26 19:13 | 47.73236 | 15.40355 | 24930 ft | 396 kts | 249° |
| 2026-04-26 19:13 | 47.72180 | 15.36568 | 25333 ft | 398 kts | 249° |
| 2026-04-26 19:14 | 47.71115 | 15.32757 | 25737 ft | 400 kts | 250° |
| 2026-04-26 19:14 | 47.70044 | 15.28921 | 26109 ft | 402 kts | 249° |
| 2026-04-26 19:14 | 47.68970 | 15.25084 | 26454 ft | 404 kts | 249° |
| 2026-04-26 19:14 | 47.68252 | 15.22531 | 26703 ft | 405 kts | 249° |
| 2026-04-26 19:15 | 47.66806 | 15.17402 | 27211 ft | 408 kts | 249° |
| 2026-04-26 19:15 | 47.65707 | 15.13512 | 27591 ft | 409 kts | 249° |
| 2026-04-26 19:15 | 47.64604 | 15.09618 | 27901 ft | 411 kts | 249° |
| 2026-04-26 19:15 | 47.63489 | 15.05687 | 28242 ft | 413 kts | 249° |
| 2026-04-26 19:16 | 47.62376 | 15.01768 | 28586 ft | 415 kts | 249° |
| 2026-04-26 19:16 | 47.61253 | 14.97823 | 28918 ft | 417 kts | 249° |
| 2026-04-26 19:16 | 47.60122 | 14.93857 | 29251 ft | 418 kts | 249° |
| 2026-04-26 19:16 | 47.58984 | 14.89878 | 29551 ft | 420 kts | 249° |
| 2026-04-26 19:17 | 47.57844 | 14.85887 | 29833 ft | 422 kts | 249° |
| 2026-04-26 19:17 | 47.56699 | 14.81876 | 30123 ft | 423 kts | 249° |
| 2026-04-26 19:17 | 47.55546 | 14.77848 | 30379 ft | 425 kts | 249° |
| 2026-04-26 19:17 | 47.54385 | 14.73807 | 30617 ft | 427 kts | 249° |
| 2026-04-26 19:18 | 47.53370 | 14.69682 | 30849 ft | 427 kts | 253° |
| 2026-04-26 19:18 | 47.52457 | 14.65504 | 31077 ft | 428 kts | 254° |
| 2026-04-26 19:18 | 47.51550 | 14.61314 | 31364 ft | 427 kts | 254° |
| 2026-04-26 19:18 | 47.50647 | 14.57137 | 31693 ft | 426 kts | 254° |
| 2026-04-26 19:19 | 47.49747 | 14.52962 | 32001 ft | 425 kts | 254° |
| 2026-04-26 19:19 | 47.48859 | 14.48810 | 32307 ft | 424 kts | 254° |
| 2026-04-26 19:19 | 47.47971 | 14.44656 | 32613 ft | 423 kts | 254° |
| 2026-04-26 19:19 | 47.47097 | 14.40570 | 32904 ft | 422 kts | 254° |
| 2026-04-26 19:20 | 47.46213 | 14.36441 | 33201 ft | 421 kts | 254° |
| 2026-04-26 19:20 | 47.45617 | 14.33656 | 33407 ft | 420 kts | 254° |
| 2026-04-26 19:20 | 47.44451 | 14.28211 | 33833 ft | 419 kts | 254° |
| 2026-04-26 19:20 | 47.43577 | 14.24111 | 34113 ft | 418 kts | 254° |
| 2026-04-26 19:21 | 47.42703 | 14.20010 | 34185 ft | 417 kts | 254° |
| 2026-04-26 19:21 | 47.40960 | 14.11850 | 34182 ft | 416 kts | 254° |
| 2026-04-26 19:22 | 47.39216 | 14.03704 | 34179 ft | 416 kts | 254° |
| 2026-04-26 19:22 | 47.37473 | 13.95565 | 34178 ft | 416 kts | 254° |
| 2026-04-26 19:23 | 47.35740 | 13.87417 | 34184 ft | 417 kts | 254° |
| 2026-04-26 19:23 | 47.34002 | 13.79245 | 34191 ft | 417 kts | 254° |
| 2026-04-26 19:24 | 47.31880 | 13.71294 | 34209 ft | 418 kts | 245° |
| 2026-04-26 19:24 | 47.27887 | 13.59915 | 34205 ft | 416 kts | 245° |
| 2026-04-26 19:25 | 47.25671 | 13.53648 | 34204 ft | 415 kts | 244° |
| 2026-04-26 19:25 | 47.22558 | 13.44859 | 34199 ft | 414 kts | 245° |
| 2026-04-26 19:26 | 47.19899 | 13.37356 | 34179 ft | 414 kts | 244° |
| 2026-04-26 19:26 | 47.17231 | 13.29857 | 34190 ft | 414 kts | 244° |
| 2026-04-26 19:27 | 47.14582 | 13.22424 | 34188 ft | 412 kts | 244° |
| 2026-04-26 19:27 | 47.11919 | 13.14979 | 34180 ft | 412 kts | 244° |
| 2026-04-26 19:28 | 47.09249 | 13.07556 | 34181 ft | 410 kts | 244° |
| 2026-04-26 19:28 | 47.06581 | 13.00153 | 34178 ft | 410 kts | 244° |
| 2026-04-26 19:29 | 47.03909 | 12.92754 | 34148 ft | 410 kts | 244° |
| 2026-04-26 19:29 | 47.01232 | 12.85348 | 34149 ft | 411 kts | 244° |
| 2026-04-26 19:30 | 46.98546 | 12.77956 | 34149 ft | 411 kts | 244° |
| 2026-04-26 19:30 | 46.96303 | 12.71819 | 33901 ft | 411 kts | 244° |
| 2026-04-26 19:31 | 46.94500 | 12.66883 | 33231 ft | 411 kts | 244° |
| 2026-04-26 19:31 | 46.93147 | 12.63168 | 33139 ft | 414 kts | 244° |
| 2026-04-26 19:31 | 46.90436 | 12.55721 | 33174 ft | 415 kts | 244° |
| 2026-04-26 19:32 | 46.87865 | 12.48219 | 33185 ft | 415 kts | 245° |
| 2026-04-26 19:32 | 46.85344 | 12.40616 | 33197 ft | 415 kts | 245° |
| 2026-04-26 19:33 | 46.82806 | 12.33027 | 33213 ft | 416 kts | 245° |
| 2026-04-26 19:33 | 46.80243 | 12.25468 | 33220 ft | 416 kts | 245° |
| 2026-04-26 19:34 | 46.77659 | 12.17914 | 33139 ft | 416 kts | 245° |
| 2026-04-26 19:34 | 46.75071 | 12.10365 | 33142 ft | 416 kts | 245° |
| 2026-04-26 19:35 | 46.72500 | 12.02871 | 33133 ft | 416 kts | 245° |
| 2026-04-26 19:35 | 46.69905 | 11.95347 | 33136 ft | 416 kts | 245° |
| 2026-04-26 19:36 | 46.68164 | 11.90312 | 33132 ft | 416 kts | 245° |
| 2026-04-26 19:36 | 46.64698 | 11.80313 | 33130 ft | 416 kts | 245° |
| 2026-04-26 19:37 | 46.62089 | 11.72801 | 33122 ft | 416 kts | 245° |
| 2026-04-26 19:37 | 46.59479 | 11.65295 | 33105 ft | 416 kts | 245° |
| 2026-04-26 19:38 | 46.56864 | 11.57815 | 33093 ft | 413 kts | 244° |
| 2026-04-26 19:38 | 46.54262 | 11.50384 | 33077 ft | 412 kts | 244° |
| 2026-04-26 19:39 | 46.51658 | 11.42975 | 33057 ft | 412 kts | 245° |
| 2026-04-26 19:39 | 46.49490 | 11.36809 | 33059 ft | 412 kts | 244° |
| 2026-04-26 19:40 | 46.46874 | 11.29409 | 33052 ft | 412 kts | 244° |
| 2026-04-26 19:40 | 46.44256 | 11.22000 | 33182 ft | 412 kts | 244° |
| 2026-04-26 19:41 | 46.41628 | 11.14613 | 33209 ft | 413 kts | 244° |
| 2026-04-26 19:41 | 46.39438 | 11.08465 | 33260 ft | 413 kts | 244° |
| 2026-04-26 19:42 | 46.36366 | 10.99843 | 33258 ft | 412 kts | 244° |
| 2026-04-26 19:42 | 46.33725 | 10.92482 | 33256 ft | 412 kts | 244° |
| 2026-04-26 19:43 | 46.31081 | 10.85172 | 33245 ft | 412 kts | 244° |
| 2026-04-26 19:43 | 46.28418 | 10.77774 | 33251 ft | 412 kts | 244° |
| 2026-04-26 19:44 | 46.25775 | 10.70429 | 33238 ft | 411 kts | 244° |
| 2026-04-26 19:44 | 46.23144 | 10.63130 | 33237 ft | 412 kts | 244° |
| 2026-04-26 19:45 | 46.20477 | 10.55801 | 33214 ft | 412 kts | 244° |
| 2026-04-26 19:45 | 46.17800 | 10.48477 | 33216 ft | 413 kts | 244° |
| 2026-04-26 19:46 | 46.15129 | 10.41153 | 33184 ft | 412 kts | 244° |
| 2026-04-26 19:46 | 46.13800 | 10.37505 | 32630 ft | 412 kts | 244° |
| 2026-04-26 19:46 | 46.12456 | 10.33827 | 32169 ft | 416 kts | 244° |
| 2026-04-26 19:47 | 46.11104 | 10.30134 | 31834 ft | 417 kts | 244° |
| 2026-04-26 19:47 | 46.10205 | 10.27687 | 31525 ft | 417 kts | 244° |
| 2026-04-26 19:47 | 46.08398 | 10.22783 | 30873 ft | 412 kts | 244° |
| 2026-04-26 19:47 | 46.07057 | 10.19149 | 30401 ft | 410 kts | 244° |
| 2026-04-26 19:48 | 46.05621 | 10.15613 | 29884 ft | 409 kts | 237° |
| 2026-04-26 19:48 | 46.03846 | 10.12418 | 29333 ft | 409 kts | 229° |
| 2026-04-26 19:48 | 46.01765 | 10.09635 | 28813 ft | 409 kts | 221° |
| 2026-04-26 19:48 | 45.99420 | 10.07320 | 28295 ft | 409 kts | 214° |
| 2026-04-26 19:49 | 45.96999 | 10.05183 | 27785 ft | 406 kts | 214° |
| 2026-04-26 19:49 | 45.94602 | 10.03057 | 27304 ft | 403 kts | 214° |
| 2026-04-26 19:49 | 45.92221 | 10.00949 | 27122 ft | 401 kts | 214° |
| 2026-04-26 19:49 | 45.89849 | 9.98849 | 27173 ft | 401 kts | 214° |
| 2026-04-26 19:50 | 45.87505 | 9.96773 | 27043 ft | 401 kts | 215° |
| 2026-04-26 19:50 | 45.85133 | 9.94667 | 26538 ft | 399 kts | 215° |
| 2026-04-26 19:50 | 45.82746 | 9.92550 | 26025 ft | 396 kts | 214° |
| 2026-04-26 19:50 | 45.80440 | 9.90510 | 25534 ft | 394 kts | 214° |
| 2026-04-26 19:51 | 45.78114 | 9.88459 | 25046 ft | 391 kts | 214° |
| 2026-04-26 19:51 | 45.75798 | 9.86417 | 24491 ft | 391 kts | 214° |
| 2026-04-26 19:51 | 45.73484 | 9.84379 | 23895 ft | 390 kts | 214° |
| 2026-04-26 19:51 | 45.71169 | 9.82344 | 23274 ft | 390 kts | 214° |
| 2026-04-26 19:52 | 45.68856 | 9.80313 | 22616 ft | 390 kts | 214° |
| 2026-04-26 19:52 | 45.66540 | 9.78281 | 21923 ft | 392 kts | 213° |
| 2026-04-26 19:52 | 45.64221 | 9.76226 | 21254 ft | 393 kts | 214° |
| 2026-04-26 19:52 | 45.61944 | 9.74064 | 20598 ft | 393 kts | 216° |
| 2026-04-26 19:53 | 45.59701 | 9.71824 | 19957 ft | 394 kts | 217° |
| 2026-04-26 19:53 | 45.57474 | 9.69546 | 19332 ft | 394 kts | 217° |
| 2026-04-26 19:53 | 45.55247 | 9.67262 | 18813 ft | 394 kts | 217° |
| 2026-04-26 19:53 | 45.53012 | 9.64991 | 18168 ft | 395 kts | 217° |
| 2026-04-26 19:54 | 45.50780 | 9.62753 | 17571 ft | 384 kts | 216° |
| 2026-04-26 19:54 | 45.48598 | 9.60584 | 16488 ft | 381 kts | 216° |
| 2026-04-26 19:54 | 45.46427 | 9.58437 | 15489 ft | 377 kts | 216° |
| 2026-04-26 19:54 | 45.44284 | 9.56322 | 14520 ft | 372 kts | 216° |
| 2026-04-26 19:55 | 45.42170 | 9.54237 | 13537 ft | 367 kts | 216° |
| 2026-04-26 19:55 | 45.40076 | 9.52170 | 12507 ft | 362 kts | 215° |
| 2026-04-26 19:55 | 45.38023 | 9.50145 | 11504 ft | 357 kts | 215° |
| 2026-04-26 19:55 | 45.35996 | 9.48152 | 10612 ft | 350 kts | 215° |
| 2026-04-26 19:56 | 45.34074 | 9.46261 | 10454 ft | 321 kts | 215° |
| 2026-04-26 19:56 | 45.32279 | 9.44577 | 10260 ft | 298 kts | 207° |
| 2026-04-26 19:56 | 45.30362 | 9.43654 | 9833 ft | 286 kts | 187° |
| 2026-04-26 19:56 | 45.28457 | 9.43616 | 9482 ft | 273 kts | 176° |
| 2026-04-26 19:57 | 45.26585 | 9.43817 | 8979 ft | 266 kts | 176° |
| 2026-04-26 19:57 | 45.24764 | 9.44013 | 8555 ft | 257 kts | 176° |
| 2026-04-26 19:57 | 45.23007 | 9.44198 | 8315 ft | 250 kts | 176° |
| 2026-04-26 19:57 | 45.21295 | 9.44376 | 8082 ft | 244 kts | 176° |
| 2026-04-26 19:58 | 45.19617 | 9.44550 | 7810 ft | 240 kts | 176° |
| 2026-04-26 19:58 | 45.17941 | 9.44721 | 7403 ft | 243 kts | 176° |
| 2026-04-26 19:58 | 45.16254 | 9.44679 | 6950 ft | 242 kts | 192° |
| 2026-04-26 19:58 | 45.14743 | 9.43670 | 6442 ft | 240 kts | 220° |
| 2026-04-26 19:59 | 45.13736 | 9.41846 | 6069 ft | 232 kts | 246° |
| 2026-04-26 19:59 | 45.13393 | 9.39665 | 5880 ft | 226 kts | 270° |
| 2026-04-26 19:59 | 45.13718 | 9.37533 | 5675 ft | 220 kts | 296° |
| 2026-04-26 19:59 | 45.14614 | 9.35832 | 5501 ft | 213 kts | 320° |
| 2026-04-26 20:00 | 45.15848 | 9.34786 | 5322 ft | 203 kts | 335° |
| 2026-04-26 20:00 | 45.17113 | 9.33942 | 5133 ft | 199 kts | 335° |
| 2026-04-26 20:00 | 45.18362 | 9.33102 | 4954 ft | 198 kts | 335° |
| 2026-04-26 20:00 | 45.19575 | 9.32284 | 4781 ft | 189 kts | 335° |
| 2026-04-26 20:01 | 45.20751 | 9.31488 | 4614 ft | 186 kts | 334° |
| 2026-04-26 20:01 | 45.21911 | 9.30712 | 4474 ft | 183 kts | 335° |
| 2026-04-26 20:01 | 45.23067 | 9.29954 | 4303 ft | 183 kts | 336° |
| 2026-04-26 20:01 | 45.24254 | 9.29352 | 4126 ft | 185 kts | 349° |
| 2026-04-26 20:02 | 45.25531 | 9.29323 | 3854 ft | 182 kts | 8° |
| 2026-04-26 20:02 | 45.26726 | 9.29629 | 3643 ft | 164 kts | 11° |
| 2026-04-26 20:02 | 45.27813 | 9.29781 | 3410 ft | 153 kts | 358° |
| 2026-04-26 20:02 | 45.28522 | 9.29696 | 3234 ft | 149 kts | 353° |
| 2026-04-26 20:03 | 45.29859 | 9.29442 | 2890 ft | 146 kts | 353° |
| 2026-04-26 20:03 | 45.30879 | 9.29303 | 2704 ft | 146 kts | 355° |
| 2026-04-26 20:03 | 45.31880 | 9.29155 | 2550 ft | 146 kts | 354° |
| 2026-04-26 20:03 | 45.32898 | 9.28991 | 2403 ft | 148 kts | 355° |
| 2026-04-26 20:04 | 45.33935 | 9.28919 | 2262 ft | 150 kts | 358° |
| 2026-04-26 20:04 | 45.34978 | 9.28845 | 2067 ft | 151 kts | 353° |
| 2026-04-26 20:04 | 45.36011 | 9.28671 | 1893 ft | 149 kts | 352° |
| 2026-04-26 20:04 | 45.37045 | 9.28537 | 1687 ft | 150 kts | 354° |
| 2026-04-26 20:05 | 45.38080 | 9.28434 | 1433 ft | 149 kts | 353° |
| 2026-04-26 20:05 | 45.39109 | 9.28315 | 1233 ft | 148 kts | 352° |
| 2026-04-26 20:05 | 45.40129 | 9.28186 | 1031 ft | 147 kts | 353° |
| 2026-04-26 20:05 | 45.41138 | 9.28079 | 861 ft | 143 kts | 355° |
| 2026-04-26 20:06 | 45.42130 | 9.27985 | 674 ft | 143 kts | 353° |
| 2026-04-26 20:06 | 45.43128 | 9.27858 | 482 ft | 145 kts | 353° |
| 2026-04-26 20:06 | 45.44117 | 9.27749 | 365 ft | 133 kts | 356° |
| 2026-04-26 20:06 | 45.44805 | 9.27669 | 362 ft | 57 kts | 356° |
| 2026-04-26 20:07 | 45.45018 | 9.27651 | 362 ft | 31 kts | 356° |
| 2026-04-26 20:07 | 45.45219 | 9.27636 | 359 ft | 24 kts | 359° |
| 2026-04-26 20:07 | 45.45375 | 9.27701 | 360 ft | 23 kts | 27° |
| 2026-04-26 20:07 | 45.45441 | 9.27764 | 361 ft | 0 kts | 39° |
| 2026-04-26 20:08 | 45.45480 | 9.27807 | 360 ft | 12 kts | 22° |
| 2026-04-26 20:08 | 45.45559 | 9.27816 | 360 ft | 11 kts | 359° |
| 2026-04-26 20:08 | 45.45630 | 9.27816 | 360 ft | 10 kts | 0° |
| 2026-04-26 20:08 | 45.45687 | 9.27826 | 366 ft | 6 kts | 38° |
| 2026-04-26 20:09 | 45.45691 | 9.27886 | 364 ft | 6 kts | 89° |
| 2026-04-26 20:09 | 45.45691 | 9.27893 | 360 ft | 0 kts | 90° |